MSC Poh Lin — H8FC — position and weather

sailwx.info

Track history (hours):
 
Tides and Currents Weather Stations Pressure Air Temp Water Temp Dewpoint Dewpoint Depression Visibility Wind Speed Wind Dir Waves Ship Positions

MSC Poh Lin

Last reported at 2014-Sep-18 08:25 UTC. Time now 2014-Sep-23 02:16 UTC.
Position N 35°40' W 027°29'.

Length 294 m; draft 12.8 m.

Type: Ship (hazmat cat A). MMSI: 357405000.

Date/timePositionNaut miles runAvg speedWind from/ knotsBaromVisibWave heightAir tempDewpointWater temp
2014-Sep-18 08:25N 35°40' W 027°29'1415.6
2014-Sep-18 07:32N 35°41' W 027°12'3616.9
2014-Sep-18 05:25N 35°50' W 026°29'2216.9
2014-Sep-18 04:09N 35°55' W 026°03'1016.9
2014-Sep-18 03:33N 35°57' W 025°51'1816.6
2014-Sep-18 02:29N 36°01' W 025°30'1616.7
2014-Sep-18 01:33N 36°05' W 025°11'1716.8
2014-Sep-18 00:33N 36°08' W 024°51'1717.0
2014-Sep-17 23:33N 36°12' W 024°30'1717.3
2014-Sep-17 22:33N 36°16' W 024°09'1717.3
2014-Sep-17 21:33N 36°20' W 023°49'5416.9
2014-Sep-17 18:22N 36°31' W 022°43'1315.9
2014-Sep-17 17:33N 36°33' W 022°27'62215.9
2014-Sep-16 02:29N 37°53' W 009°32'1516.6
2014-Sep-16 01:33N 37°54' W 009°13'1616.3
2014-Sep-16 00:33N 37°55' W 008°52'2 1.7
2014-Sep-15 23:33N 37°56' W 008°51'0 0.0
2014-Sep-15 22:32N 37°56' W 008°51'0 0.0
2014-Sep-15 21:32N 37°56' W 008°51'0 0.0
2014-Sep-15 20:32N 37°56' W 008°51'0 0.0
2014-Sep-15 19:32N 37°56' W 008°51'0 0.0
2014-Sep-15 18:32N 37°56' W 008°51'0 0.0
2014-Sep-15 17:29N 37°56' W 008°51'0 0.0
2014-Sep-15 16:32N 37°56' W 008°51'0 0.0
2014-Sep-15 15:32N 37°56' W 008°51'0 0.0
2014-Sep-15 14:32N 37°56' W 008°51'0 0.0
2014-Sep-15 13:32N 37°56' W 008°51'0 0.0
2014-Sep-15 12:32N 37°56' W 008°51'0 0.5
2014-Sep-15 11:33N 37°56' W 008°51'4 3.7
2014-Sep-15 10:33N 37°52' W 008°51'1211.7
2014-Sep-15 09:33N 37°41' W 008°57'2019.9
2014-Sep-15 08:33N 37°23' W 009°08'4915.7
2014-Sep-15 05:25N 36°37' W 008°44'16220.0
2014-Sep-14 21:20N 35°58' W 005°30'20018.5
2014-Sep-14 10:33N 36°54' W 001°31'4321.4
2014-Sep-14 08:33N 37°22' W 000°51'2121.1
2014-Sep-14 07:33N 37°36' W 000°31'2121.0
2014-Sep-14 06:33N 37°54' W 000°17'2121.2
2014-Sep-14 05:33N 38°12' W 000°02'2121.1
2014-Sep-14 04:33N 38°29' E 000°13'2221.3
2014-Sep-14 03:30N 38°48' E 000°29'54 9.0
2014-Sep-13 21:31N 39°26' W 000°20'0 0.0
2014-Sep-13 19:31N 39°26' W 000°20'0 0.0
2014-Sep-13 18:31N 39°26' W 000°20'0 0.0
2014-Sep-13 17:31N 39°26' W 000°20'0 0.0
2014-Sep-13 16:25N 39°26' W 000°20'0 0.0
2014-Sep-13 15:31N 39°26' W 000°20'0 0.0
2014-Sep-13 14:31N 39°26' W 000°20'0 0.0
2014-Sep-13 13:31N 39°26' W 000°20'0 0.0
2014-Sep-13 12:31N 39°26' W 000°20'0 0.0
2014-Sep-13 11:22N 39°26' W 000°20'0 0.0
2014-Sep-13 10:31N 39°26' W 000°20'0 0.0
2014-Sep-13 09:31N 39°26' W 000°20'0 0.0
2014-Sep-13 08:31N 39°26' W 000°20'0 0.0
2014-Sep-13 07:33N 39°26' W 000°20'0 0.3
2014-Sep-13 06:33N 39°26' W 000°20'0 0.0
2014-Sep-13 05:33N 39°26' W 000°20'0 0.0
2014-Sep-13 04:30N 39°26' W 000°20'0 0.0
2014-Sep-13 03:34N 39°26' W 000°20'0 0.0
2014-Sep-13 02:34N 39°26' W 000°20'0 0.0
2014-Sep-13 01:33N 39°26' W 000°20'0 0.0
2014-Sep-13 00:33N 39°26' W 000°20'0 0.0
2014-Sep-12 23:33N 39°26' W 000°20'0 0.0
2014-Sep-12 22:33N 39°26' W 000°20'0 0.0
2014-Sep-12 21:33N 39°26' W 000°20'0 0.0
2014-Sep-12 20:33N 39°26' W 000°20'0 0.0
2014-Sep-12 19:30N 39°26' W 000°20'0 0.0
2014-Sep-12 18:34N 39°26' W 000°20'0 0.0
2014-Sep-12 17:21N 39°26' W 000°20'0 0.0
2014-Sep-12 16:30N 39°26' W 000°20'0 0.0
2014-Sep-12 15:34N 39°26' W 000°20'0 0.0
2014-Sep-12 14:33N 39°26' W 000°20'0 0.0
2014-Sep-12 13:24N 39°26' W 000°20'0 0.0
2014-Sep-12 12:33N 39°26' W 000°20'2 2.4
2014-Sep-12 11:33N 39°25' W 000°17'3 2.8
2014-Sep-12 10:33N 39°25' W 000°14'0 0.4
2014-Sep-12 09:33N 39°25' W 000°13'1 1.2
2014-Sep-12 08:33N 39°25' W 000°11'6 6.4
2014-Sep-12 07:33N 39°28' W 000°04'41 9.9
2014-Sep-12 03:27N 39°40' E 000°46'1010.9
2014-Sep-12 02:34N 39°46' E 000°57'1110.8
2014-Sep-12 01:33N 39°52' E 001°09'1110.7
2014-Sep-12 00:33N 39°58' E 001°20'1010.5
2014-Sep-11 23:34N 40°03' E 001°32'1010.3
2014-Sep-11 22:34N 40°09' E 001°44'1110.7
2014-Sep-11 21:33N 40°14' E 001°55'1110.6
2014-Sep-11 20:34N 40°20' E 002°07'1010.3
2014-Sep-11 19:33N 40°26' E 002°18'1010.2
2014-Sep-11 18:33N 40°31' E 002°30'1010.2
2014-Sep-11 17:33N 40°36' E 002°41'1010.3
2014-Sep-11 16:33N 40°42' E 002°53'1010.4
2014-Sep-11 15:33N 40°48' E 003°04'1010.3
2014-Sep-11 14:33N 40°53' E 003°15'1010.4
2014-Sep-11 13:33N 40°59' E 003°27'1010.4
2014-Sep-11 12:34N 41°05' E 003°38'1110.0
2014-Sep-11 11:28N 41°11' E 003°50'910.0
2014-Sep-11 10:33N 41°15' E 004°01'1110.1
2014-Sep-11 09:31N 41°21' E 004°13'1110.1
2014-Sep-11 08:23N 41°27' E 004°25'1310.8
2014-Sep-11 07:09N 41°34' E 004°41'6 8.7
2014-Sep-11 06:27N 41°37' E 004°47'2111.0
2014-Sep-11 04:32N 41°48' E 005°11'1211.7
2014-Sep-11 03:33N 41°54' E 005°25'1111.2
2014-Sep-11 02:33N 42°01' E 005°37'1111.3
2014-Sep-11 01:33N 42°07' E 005°50'1211.6
2014-Sep-11 00:33N 42°12' E 006°04'1110.6
2014-Sep-10 23:33N 42°19' E 006°15'1110.7
2014-Sep-10 22:33N 42°24' E 006°27'1716.1
2014-Sep-10 21:31N 42°33' E 006°46'10 7.0
2014-Sep-10 20:03N 42°39' E 006°58'510.3
2014-Sep-10 19:33N 42°42' E 007°04'80 9.4
2014-Sep-10 11:04N 43°25' E 008°36'4 8.8
2014-Sep-10 10:33N 43°27' E 008°41'26 8.6
2014-Sep-10 07:34N 43°41' E 009°11'10 9.2
2014-Sep-10 06:31N 43°46' E 009°22'20 9.4
2014-Sep-10 04:25N 43°57' E 009°45'11 3.6
2014-Sep-10 01:31N 44°06' E 009°51'0 0.0
2014-Sep-10 00:31N 44°06' E 009°51'0 0.0
2014-Sep-09 23:31N 44°06' E 009°51'0 0.0
2014-Sep-09 22:31N 44°06' E 009°51'0 0.0
2014-Sep-09 21:34N 44°06' E 009°51'0 0.0
2014-Sep-09 20:30N 44°06' E 009°51'0 0.0
2014-Sep-09 19:33N 44°06' E 009°51'0 0.0
2014-Sep-09 18:33N 44°06' E 009°51'0 0.0
2014-Sep-09 17:33N 44°06' E 009°51'0 0.0
2014-Sep-09 16:31N 44°06' E 009°51'0 0.0
2014-Sep-09 15:31N 44°06' E 009°51'0 0.0
2014-Sep-09 14:33N 44°06' E 009°51'0 0.0
2014-Sep-09 13:31N 44°06' E 009°51'0 0.0
2014-Sep-09 12:33N 44°06' E 009°51'0 0.0
2014-Sep-09 11:30N 44°06' E 009°51'0 0.0
2014-Sep-09 10:34N 44°06' E 009°51'0 0.0
2014-Sep-09 09:33N 44°06' E 009°51'0 0.0
2014-Sep-09 08:33N 44°06' E 009°51'4 4.1
2014-Sep-09 07:33N 44°03' E 009°53'1 1.1
2014-Sep-09 06:32N 44°02' E 009°54'4 4.0
2014-Sep-09 05:33N 43°58' E 009°54'0 0.1
2014-Sep-09 04:32N 43°58' E 009°54'0 0.1
2014-Sep-09 03:32N 43°58' E 009°55'4 4.0
2014-Sep-09 02:33N 43°54' E 009°54'1514.8
2014-Sep-09 01:34N 43°40' E 009°50'1919.3
2014-Sep-09 00:34N 43°22' E 009°42'1919.2
2014-Sep-08 23:34N 43°03' E 009°37'2019.6
2014-Sep-08 22:32N 42°43' E 009°45'2119.3
2014-Sep-08 21:26N 42°23' E 009°53'1516.9
2014-Sep-08 20:31N 42°13' E 010°08'1919.7
2014-Sep-08 19:32N 42°11' E 010°34'  
Track history (hours):
 
Tides and Currents Weather Stations Pressure Air Temp Water Temp Dewpoint Dewpoint Depression Visibility Wind Speed Wind Dir Waves Ship Positions

MSC Poh Lin

Last reported at 2014-Sep-18 08:25 UTC. Time now 2014-Sep-23 02:16 UTC.
Position N 35°40' W 027°29'.

Length 294 m; draft 12.8 m.

Type: Ship (hazmat cat A). MMSI: 357405000.

Date/timePositionNaut miles runAvg speedWind from/ knotsBaromVisibWave heightAir tempDewpointWater temp
2014-Sep-18 08:25N 35°40' W 027°29'1415.6
2014-Sep-18 07:32N 35°41' W 027°12'3616.9
2014-Sep-18 05:25N 35°50' W 026°29'2216.9
2014-Sep-18 04:09N 35°55' W 026°03'1016.9
2014-Sep-18 03:33N 35°57' W 025°51'1816.6
2014-Sep-18 02:29N 36°01' W 025°30'1616.7
2014-Sep-18 01:33N 36°05' W 025°11'1716.8
2014-Sep-18 00:33N 36°08' W 024°51'1717.0
2014-Sep-17 23:33N 36°12' W 024°30'1717.3
2014-Sep-17 22:33N 36°16' W 024°09'1717.3
2014-Sep-17 21:33N 36°20' W 023°49'5416.9
2014-Sep-17 18:22N 36°31' W 022°43'1315.9
2014-Sep-17 17:33N 36°33' W 022°27'62215.9
2014-Sep-16 02:29N 37°53' W 009°32'1516.6
2014-Sep-16 01:33N 37°54' W 009°13'1616.3
2014-Sep-16 00:33N 37°55' W 008°52'2 1.7
2014-Sep-15 23:33N 37°56' W 008°51'0 0.0
2014-Sep-15 22:32N 37°56' W 008°51'0 0.0
2014-Sep-15 21:32N 37°56' W 008°51'0 0.0
2014-Sep-15 20:32N 37°56' W 008°51'0 0.0
2014-Sep-15 19:32N 37°56' W 008°51'0 0.0
2014-Sep-15 18:32N 37°56' W 008°51'0 0.0
2014-Sep-15 17:29N 37°56' W 008°51'0 0.0
2014-Sep-15 16:32N 37°56' W 008°51'0 0.0
2014-Sep-15 15:32N 37°56' W 008°51'0 0.0
2014-Sep-15 14:32N 37°56' W 008°51'0 0.0
2014-Sep-15 13:32N 37°56' W 008°51'0 0.0
2014-Sep-15 12:32N 37°56' W 008°51'0 0.5
2014-Sep-15 11:33N 37°56' W 008°51'4 3.7
2014-Sep-15 10:33N 37°52' W 008°51'1211.7
2014-Sep-15 09:33N 37°41' W 008°57'2019.9
2014-Sep-15 08:33N 37°23' W 009°08'4915.7
2014-Sep-15 05:25N 36°37' W 008°44'16220.0
2014-Sep-14 21:20N 35°58' W 005°30'20018.5
2014-Sep-14 10:33N 36°54' W 001°31'4321.4
2014-Sep-14 08:33N 37°22' W 000°51'2121.1
2014-Sep-14 07:33N 37°36' W 000°31'2121.0
2014-Sep-14 06:33N 37°54' W 000°17'2121.2
2014-Sep-14 05:33N 38°12' W 000°02'2121.1
2014-Sep-14 04:33N 38°29' E 000°13'2221.3
2014-Sep-14 03:30N 38°48' E 000°29'54 9.0
2014-Sep-13 21:31N 39°26' W 000°20'0 0.0
2014-Sep-13 19:31N 39°26' W 000°20'0 0.0
2014-Sep-13 18:31N 39°26' W 000°20'0 0.0
2014-Sep-13 17:31N 39°26' W 000°20'0 0.0
2014-Sep-13 16:25N 39°26' W 000°20'0 0.0
2014-Sep-13 15:31N 39°26' W 000°20'0 0.0
2014-Sep-13 14:31N 39°26' W 000°20'0 0.0
2014-Sep-13 13:31N 39°26' W 000°20'0 0.0
2014-Sep-13 12:31N 39°26' W 000°20'0 0.0
2014-Sep-13 11:22N 39°26' W 000°20'0 0.0
2014-Sep-13 10:31N 39°26' W 000°20'0 0.0
2014-Sep-13 09:31N 39°26' W 000°20'0 0.0
2014-Sep-13 08:31N 39°26' W 000°20'0 0.0
2014-Sep-13 07:33N 39°26' W 000°20'0 0.3
2014-Sep-13 06:33N 39°26' W 000°20'0 0.0
2014-Sep-13 05:33N 39°26' W 000°20'0 0.0
2014-Sep-13 04:30N 39°26' W 000°20'0 0.0
2014-Sep-13 03:34N 39°26' W 000°20'0 0.0
2014-Sep-13 02:34N 39°26' W 000°20'0 0.0
2014-Sep-13 01:33N 39°26' W 000°20'0 0.0
2014-Sep-13 00:33N 39°26' W 000°20'0 0.0
2014-Sep-12 23:33N 39°26' W 000°20'0 0.0
2014-Sep-12 22:33N 39°26' W 000°20'0 0.0
2014-Sep-12 21:33N 39°26' W 000°20'0 0.0
2014-Sep-12 20:33N 39°26' W 000°20'0 0.0
2014-Sep-12 19:30N 39°26' W 000°20'0 0.0
2014-Sep-12 18:34N 39°26' W 000°20'0 0.0
2014-Sep-12 17:21N 39°26' W 000°20'0 0.0
2014-Sep-12 16:30N 39°26' W 000°20'0 0.0
2014-Sep-12 15:34N 39°26' W 000°20'0 0.0
2014-Sep-12 14:33N 39°26' W 000°20'0 0.0
2014-Sep-12 13:24N 39°26' W 000°20'0 0.0
2014-Sep-12 12:33N 39°26' W 000°20'2 2.4
2014-Sep-12 11:33N 39°25' W 000°17'3 2.8
2014-Sep-12 10:33N 39°25' W 000°14'0 0.4
2014-Sep-12 09:33N 39°25' W 000°13'1 1.2
2014-Sep-12 08:33N 39°25' W 000°11'6 6.4
2014-Sep-12 07:33N 39°28' W 000°04'41 9.9
2014-Sep-12 03:27N 39°40' E 000°46'1010.9
2014-Sep-12 02:34N 39°46' E 000°57'1110.8
2014-Sep-12 01:33N 39°52' E 001°09'1110.7
2014-Sep-12 00:33N 39°58' E 001°20'1010.5
2014-Sep-11 23:34N 40°03' E 001°32'1010.3
2014-Sep-11 22:34N 40°09' E 001°44'1110.7
2014-Sep-11 21:33N 40°14' E 001°55'1110.6
2014-Sep-11 20:34N 40°20' E 002°07'1010.3
2014-Sep-11 19:33N 40°26' E 002°18'1010.2
2014-Sep-11 18:33N 40°31' E 002°30'1010.2
2014-Sep-11 17:33N 40°36' E 002°41'1010.3
2014-Sep-11 16:33N 40°42' E 002°53'1010.4
2014-Sep-11 15:33N 40°48' E 003°04'1010.3
2014-Sep-11 14:33N 40°53' E 003°15'1010.4
2014-Sep-11 13:33N 40°59' E 003°27'1010.4
2014-Sep-11 12:34N 41°05' E 003°38'1110.0
2014-Sep-11 11:28N 41°11' E 003°50'910.0
2014-Sep-11 10:33N 41°15' E 004°01'1110.1
2014-Sep-11 09:31N 41°21' E 004°13'1110.1
2014-Sep-11 08:23N 41°27' E 004°25'1310.8
2014-Sep-11 07:09N 41°34' E 004°41'6 8.7
2014-Sep-11 06:27N 41°37' E 004°47'2111.0
2014-Sep-11 04:32N 41°48' E 005°11'1211.7
2014-Sep-11 03:33N 41°54' E 005°25'1111.2
2014-Sep-11 02:33N 42°01' E 005°37'1111.3
2014-Sep-11 01:33N 42°07' E 005°50'1211.6
2014-Sep-11 00:33N 42°12' E 006°04'1110.6
2014-Sep-10 23:33N 42°19' E 006°15'1110.7
2014-Sep-10 22:33N 42°24' E 006°27'1716.1
2014-Sep-10 21:31N 42°33' E 006°46'10 7.0
2014-Sep-10 20:03N 42°39' E 006°58'510.3
2014-Sep-10 19:33N 42°42' E 007°04'80 9.4
2014-Sep-10 11:04N 43°25' E 008°36'4 8.8
2014-Sep-10 10:33N 43°27' E 008°41'26 8.6
2014-Sep-10 07:34N 43°41' E 009°11'10 9.2
2014-Sep-10 06:31N 43°46' E 009°22'20 9.4
2014-Sep-10 04:25N 43°57' E 009°45'11 3.6
2014-Sep-10 01:31N 44°06' E 009°51'0 0.0
2014-Sep-10 00:31N 44°06' E 009°51'0 0.0
2014-Sep-09 23:31N 44°06' E 009°51'0 0.0
2014-Sep-09 22:31N 44°06' E 009°51'0 0.0
2014-Sep-09 21:34N 44°06' E 009°51'0 0.0
2014-Sep-09 20:30N 44°06' E 009°51'0 0.0
2014-Sep-09 19:33N 44°06' E 009°51'0 0.0
2014-Sep-09 18:33N 44°06' E 009°51'0 0.0
2014-Sep-09 17:33N 44°06' E 009°51'0 0.0
2014-Sep-09 16:31N 44°06' E 009°51'0 0.0
2014-Sep-09 15:31N 44°06' E 009°51'0 0.0
2014-Sep-09 14:33N 44°06' E 009°51'0 0.0
2014-Sep-09 13:31N 44°06' E 009°51'0 0.0
2014-Sep-09 12:33N 44°06' E 009°51'0 0.0
2014-Sep-09 11:30N 44°06' E 009°51'0 0.0
2014-Sep-09 10:34N 44°06' E 009°51'0 0.0
2014-Sep-09 09:33N 44°06' E 009°51'0 0.0
2014-Sep-09 08:33N 44°06' E 009°51'4 4.1
2014-Sep-09 07:33N 44°03' E 009°53'1 1.1
2014-Sep-09 06:32N 44°02' E 009°54'4 4.0
2014-Sep-09 05:33N 43°58' E 009°54'0 0.1
2014-Sep-09 04:32N 43°58' E 009°54'0 0.1
2014-Sep-09 03:32N 43°58' E 009°55'4 4.0
2014-Sep-09 02:33N 43°54' E 009°54'1514.8
2014-Sep-09 01:34N 43°40' E 009°50'1919.3
2014-Sep-09 00:34N 43°22' E 009°42'1919.2
2014-Sep-08 23:34N 43°03' E 009°37'2019.6
2014-Sep-08 22:32N 42°43' E 009°45'2119.3
2014-Sep-08 21:26N 42°23' E 009°53'1516.9
2014-Sep-08 20:31N 42°13' E 010°08'1919.7
2014-Sep-08 19:32N 42°11' E 010°34'  

Dump ship's entire track history